Wetterdaten: aktuell Samstag, 05.09.2026 14:37
Datum Zeit Temp. A. Feuchte A. Luftdruck Regen Wind Richtung Richtung Taupunkt Windchill
05.09.2026 14:37 24,4 °C 20 % 1013,9 hPa 0,0 l/m² 8,1 km/h (2 Bft) NW±45° 325 ° -0,0 °C 23,9 °C
05.09.2026 14:34 24,4 °C 20 % 1014,9 hPa 0,0 l/m² 17,6 km/h (3 Bft) NW±22.5° 325 ° -0,0 °C 22,2 °C
05.09.2026 14:32 24,5 °C 20 % 1014,9 hPa 0,0 l/m² 14,6 km/h (3 Bft) NW±22.5° 315 ° 0,1 °C 22,8 °C
05.09.2026 14:30 24,6 °C 20 % 1014,9 hPa 0,0 l/m² 5,0 km/h (1 Bft) NW±22.5° 325 ° 0,2 °C 24,6 °C
05.09.2026 14:28 24,5 °C 20 % 1013,9 hPa 0,0 l/m² 5,0 km/h (1 Bft) NW±22.5° 325 ° 0,1 °C 24,5 °C
05.09.2026 14:26 24,5 °C 20 % 1013,9 hPa 0,0 l/m² 2,1 km/h (1 Bft) N-NO±45° 20 ° 0,1 °C 24,5 °C
05.09.2026 14:24 24,4 °C 22 % 1013,9 hPa 0,0 l/m² 2,1 km/h (1 Bft) N-NO±45° 20 ° 1,3 °C 24,4 °C
05.09.2026 14:22 24,2 °C 21 % 1013,9 hPa 0,0 l/m² 2,1 km/h (1 Bft) N-NO±45° 20 ° 0,5 °C 24,2 °C
05.09.2026 14:20 24,2 °C 21 % 1013,9 hPa 0,0 l/m² 9,6 km/h (2 Bft) N±45° 5 ° 0,5 °C 23,4 °C
05.09.2026 14:19 24,2 °C 21 % 1013,9 hPa 0,0 l/m² 6,3 km/h (2 Bft) N-NW±45° 345 ° 0,5 °C 24,2 °C
05.09.2026 14:17 24,1 °C 23 % 1013,9 hPa 0,0 l/m² 6,3 km/h (2 Bft) N-NW±45° 345 ° 1,7 °C 24,1 °C
05.09.2026 14:15 24,1 °C 23 % 1013,9 hPa 0,0 l/m² 6,3 km/h (2 Bft) N-NW±45° 345 ° 1,7 °C 24,1 °C
05.09.2026 14:13 24,2 °C 22 % 1013,9 hPa 0,0 l/m² 10,5 km/h (2 Bft) NW±22.5° 320 ° 1,1 °C 23,2 °C
05.09.2026 14:11 24,0 °C 24 % 1013,9 hPa 0,0 l/m² 6,7 km/h (2 Bft) N-NW±67.5° 345 ° 2,2 °C 23,9 °C
05.09.2026 14:09 24,0 °C 24 % 1013,9 hPa 0,0 l/m² 5,5 km/h (1 Bft) NW±45° 310 ° 2,2 °C 24,0 °C
05.09.2026 14:07 24,0 °C 24 % 1013,9 hPa 0,0 l/m² 5,5 km/h (1 Bft) NW±45° 310 ° 2,2 °C 24,0 °C
05.09.2026 14:05 23,9 °C 23 % 1013,9 hPa 0,0 l/m² 7,2 km/h (2 Bft) N-NW±67.5° 330 ° 1,5 °C 23,7 °C
05.09.2026 14:03 23,9 °C 23 % 1013,9 hPa 0,0 l/m² 11,0 km/h (2 Bft) N-NW±45° 345 ° 1,5 °C 22,7 °C
05.09.2026 14:01 23,8 °C 23 % 1013,9 hPa 0,0 l/m² 11,0 km/h (2 Bft) N-NW±45° 345 ° 1,4 °C 22,6 °C
05.09.2026 13:59 23,8 °C 24 % 1013,9 hPa 0,0 l/m² 20,5 km/h (4 Bft) NW±45° 310 ° 2,0 °C 21,1 °C
05.09.2026 13:57 23,8 °C 24 % 1013,9 hPa 0,0 l/m² 22,1 km/h (4 Bft) NW±45° 320 ° 2,0 °C 20,9 °C
05.09.2026 13:54 23,7 °C 24 % 1013,9 hPa 0,0 l/m² 7,6 km/h (2 Bft) N±67.5° 350 ° 1,9 °C 23,3 °C
05.09.2026 13:52 23,7 °C 24 % 1013,9 hPa 0,0 l/m² 7,6 km/h (2 Bft) N±67.5° 350 ° 1,9 °C 23,3 °C
05.09.2026 13:50 23,7 °C 24 % 1013,9 hPa 0,0 l/m² 5,8 km/h (2 Bft) N±67.5° 360 ° 1,9 °C 23,7 °C
05.09.2026 13:48 23,5 °C 25 % 1013,9 hPa 0,0 l/m² 3,9 km/h (1 Bft) N±67.5° 5 ° 2,3 °C 23,5 °C
05.09.2026 13:46 23,4 °C 26 % 1014,0 hPa 0,0 l/m² 10,3 km/h (2 Bft) NW±22.5° 315 ° 2,8 °C 22,3 °C
05.09.2026 13:44 23,4 °C 26 % 1014,0 hPa 0,0 l/m² 10,3 km/h (2 Bft) NW±22.5° 315 ° 2,8 °C 22,3 °C
05.09.2026 13:42 23,3 °C 27 % 1014,0 hPa 0,0 l/m² 9,4 km/h (2 Bft) N-NW 330 ° 3,2 °C 22,4 °C
05.09.2026 13:41 23,1 °C 27 % 1015,0 hPa 0,0 l/m² 2,7 km/h (1 Bft) NW±22.5° 315 ° 3,1 °C 23,1 °C
05.09.2026 13:39 23,1 °C 27 % 1015,0 hPa 0,0 l/m² 2,7 km/h (1 Bft) NW±22.5° 315 ° 3,1 °C 23,1 °C
05.09.2026 13:37 23,0 °C 26 % 1015,0 hPa 0,0 l/m² 12,4 km/h (3 Bft) NW±67.5° 310 ° 2,5 °C 21,4 °C
05.09.2026 13:35 22,9 °C 26 % 1015,0 hPa 0,0 l/m² 7,8 km/h (2 Bft) NW±22.5° 320 ° 2,4 °C 22,5 °C
05.09.2026 13:33 22,9 °C 26 % 1015,0 hPa 0,0 l/m² 8,7 km/h (2 Bft) NW±67.5° 310 ° 2,4 °C 22,2 °C
05.09.2026 13:31 22,8 °C 26 % 1015,0 hPa 0,0 l/m² 8,7 km/h (2 Bft) NW±67.5° 310 ° 2,3 °C 22,1 °C
05.09.2026 13:29 22,7 °C 27 % 1015,0 hPa 0,0 l/m² 12,8 km/h (3 Bft) NW±22.5° 320 ° 2,7 °C 21,0 °C
05.09.2026 13:27 22,7 °C 27 % 1015,0 hPa 0,0 l/m² 12,6 km/h (3 Bft) NW±22.5° 315 ° 2,7 °C 21,0 °C
05.09.2026 13:25 22,7 °C 27 % 1015,0 hPa 0,0 l/m² 12,6 km/h (3 Bft) NW±22.5° 315 ° 2,7 °C 21,0 °C
05.09.2026 13:23 22,7 °C 29 % 1015,0 hPa 0,0 l/m² 13,3 km/h (3 Bft) N-NW±67.5° 340 ° 3,7 °C 20,9 °C
05.09.2026 13:21 22,5 °C 29 % 1015,0 hPa 0,0 l/m² 8,7 km/h (2 Bft) NW±22.5° 315 ° 3,6 °C 21,8 °C
05.09.2026 13:19 22,5 °C 29 % 1015,0 hPa 0,0 l/m² 4,5 km/h (1 Bft) NW±67.5° 315 ° 3,6 °C 22,5 °C
05.09.2026 13:17 22,5 °C 28 % 1015,0 hPa 0,0 l/m² 4,5 km/h (1 Bft) NW±67.5° 315 ° 3,1 °C 22,5 °C
_ Min-Zeit 05:03 14:26 00:09 - 00:02 - - 14:34 09:42
Minimum _ 18,3 °C 20 % 1009,1 hPa - 0,0 km/h (0 Bft) - - -0,0 °C 18,3 °C
_ Max-Zeit 14:30 08:06 11:25 00:01 13:57 - - 08:06 14:30
Maximum _ 24,6 °C 70 % 1015,1 hPa 0,0 l/m² 22,1 km/h
NW (4 Bft)
- - 12,9 °C 24,6 °C
Durchschnitt _ 19,9 °C 54 % 1012,3 hPa #0,0 l/m² 2,8 km/h (1 Bft) NW - 9,5 °C 19,6 °C